createdAt,value
2018-06-02T00:00:46.960Z,34.43
2018-06-02T00:03:14.471Z,40.43
2018-06-02T00:05:42.722Z,35.80
2018-06-02T00:08:10.228Z,35.17
2018-06-02T00:10:37.726Z,35.50
2018-06-02T00:13:05.244Z,39.80
2018-06-02T00:15:32.852Z,40.80
2018-06-02T00:18:00.876Z,42.10
2018-06-02T00:20:29.150Z,39.97
2018-06-02T00:22:57.420Z,41.63
2018-06-02T00:25:24.925Z,39.03
2018-06-02T00:27:53.168Z,40.40
2018-06-02T00:30:21.448Z,41.87
2018-06-02T00:32:49.727Z,41.20
2018-06-02T00:35:17.242Z,43.57
2018-06-02T00:37:44.748Z,39.50
2018-06-02T00:40:12.285Z,42.87
2018-06-02T00:42:39.793Z,38.23
2018-06-02T00:45:08.080Z,47.83
2018-06-02T00:47:35.824Z,38.93
2018-06-02T00:50:04.250Z,37.63
2018-06-02T00:52:31.764Z,46.40
2018-06-02T00:55:08.661Z,33.60
2018-06-02T00:57:36.945Z,39.80
2018-06-02T01:00:05.202Z,33.60
2018-06-02T01:02:32.824Z,33.50
2018-06-02T01:05:00.346Z,34.67
2018-06-02T01:07:28.647Z,45.40
2018-06-02T01:09:57.043Z,35.97
2018-06-02T01:12:24.554Z,34.80
2018-06-02T01:14:52.152Z,41.93
2018-06-02T01:17:20.497Z,44.23
2018-06-02T01:19:49.151Z,37.90
2018-06-02T01:22:16.665Z,35.20
2018-06-02T01:24:44.170Z,34.90
2018-06-02T01:27:11.974Z,41.33
2018-06-02T01:29:39.511Z,34.27
2018-06-02T01:32:07.877Z,34.90
2018-06-02T01:34:36.478Z,35.00
2018-06-02T01:37:04.139Z,37.80
2018-06-02T01:39:31.681Z,37.87
2018-06-02T01:42:00.095Z,37.73
2018-06-02T01:44:27.684Z,39.90
2018-06-02T01:46:55.424Z,40.00
2018-06-02T01:49:23.032Z,39.20
2018-06-02T01:51:50.541Z,36.70
2018-06-02T01:54:19.857Z,36.67
2018-06-02T01:56:48.349Z,37.50
2018-06-02T01:59:16.052Z,36.03
2018-06-02T02:01:44.876Z,37.30
2018-06-02T02:04:13.169Z,31.97
2018-06-02T02:06:41.828Z,35.20
2018-06-02T02:09:09.605Z,40.53
2018-06-02T02:11:38.100Z,38.47
2018-06-02T02:14:06.392Z,35.63
2018-06-02T02:16:34.773Z,35.70
2018-06-02T02:19:03.053Z,35.67
2018-06-02T02:21:33.197Z,35.13
2018-06-02T02:24:01.455Z,41.03
2018-06-02T02:26:29.721Z,36.77
2018-06-02T02:28:57.218Z,40.57
2018-06-02T02:31:24.715Z,38.07
2018-06-02T02:33:52.225Z,40.30
2018-06-02T02:36:20.793Z,42.00
2018-06-02T02:38:48.284Z,41.83
2018-06-02T02:41:17.260Z,36.77
2018-06-02T02:43:44.825Z,41.03
2018-06-02T02:46:12.401Z,39.87
2018-06-02T02:48:40.807Z,44.33
2018-06-02T02:51:08.375Z,41.67
2018-06-02T02:53:35.882Z,58.17
2018-06-02T02:56:03.417Z,42.80
2018-06-02T02:58:30.935Z,42.53
2018-06-02T03:00:59.227Z,37.70
2018-06-02T03:03:27.628Z,39.40
2018-06-02T03:05:55.527Z,40.20
2018-06-02T03:08:23.123Z,40.60
2018-06-02T03:10:51.397Z,41.00
2018-06-02T03:13:19.016Z,44.00
2018-06-02T03:15:46.515Z,35.93
2018-06-02T03:18:14.120Z,38.20
2018-06-02T03:20:42.435Z,35.47
2018-06-02T03:23:09.955Z,41.40
2018-06-02T03:25:38.258Z,37.83
2018-06-02T03:28:05.817Z,34.97
2018-06-02T03:30:34.191Z,39.73
2018-06-02T03:33:02.489Z,55.23
2018-06-02T03:35:30.781Z,38.93
2018-06-02T03:37:58.538Z,38.10
2018-06-02T03:40:26.079Z,38.53
2018-06-02T03:42:54.522Z,37.03
2018-06-02T03:45:22.060Z,38.90
2018-06-02T03:47:49.595Z,41.03
2018-06-02T03:50:17.847Z,33.50
2018-06-02T03:52:46.057Z,34.93
2018-06-02T03:55:14.323Z,36.33
2018-06-02T03:57:41.965Z,40.70
2018-06-02T04:00:09.553Z,38.10
2018-06-02T04:02:37.057Z,36.93
2018-06-02T04:05:04.569Z,36.40
2018-06-02T04:07:32.247Z,40.27
2018-06-02T04:10:00.638Z,36.40
2018-06-02T04:12:28.932Z,34.70
2018-06-02T04:14:57.949Z,38.47
2018-06-02T04:17:25.514Z,34.60
2018-06-02T04:19:53.032Z,34.00
2018-06-02T04:22:20.675Z,37.50
2018-06-02T04:24:48.995Z,33.37
2018-06-02T04:27:17.292Z,32.70
2018-06-02T04:29:44.842Z,39.20
2018-06-02T04:32:13.092Z,34.50
2018-06-02T04:34:40.596Z,30.30
2018-06-02T04:37:09.034Z,33.60
2018-06-02T04:39:36.635Z,33.33
2018-06-02T04:42:04.457Z,34.70
2018-06-02T04:44:32.418Z,37.80
2018-06-02T04:47:00.078Z,39.03
2018-06-02T04:49:27.622Z,36.23
2018-06-02T04:51:55.892Z,37.33
2018-06-02T04:54:24.393Z,38.20
2018-06-02T04:56:52.716Z,34.73
2018-06-02T04:59:20.229Z,35.57
2018-06-02T05:01:47.784Z,35.90
2018-06-02T05:04:16.055Z,35.30
2018-06-02T05:06:44.265Z,38.80
2018-06-02T05:09:11.836Z,36.27
2018-06-02T05:11:39.389Z,33.40
2018-06-02T05:14:07.426Z,37.43
2018-06-02T05:16:36.552Z,44.83
2018-06-02T05:19:04.870Z,36.77
2018-06-02T05:21:32.834Z,35.97
2018-06-02T05:24:00.345Z,37.87
2018-06-02T05:26:27.941Z,41.27
2018-06-02T05:28:56.271Z,32.80
2018-06-02T05:31:23.810Z,36.30
2018-06-02T05:33:51.307Z,37.33
2018-06-02T05:36:19.625Z,36.03
2018-06-02T05:38:48.259Z,38.20
2018-06-02T05:41:16.493Z,38.30
2018-06-02T05:43:45.172Z,40.63
2018-06-02T05:46:13.345Z,40.77
2018-06-02T05:48:40.828Z,44.80
2018-06-02T05:51:09.097Z,35.27
2018-06-02T05:53:36.803Z,35.70
2018-06-02T05:56:04.288Z,44.40
2018-06-02T05:58:31.798Z,34.77
2018-06-02T06:01:00.090Z,36.23
2018-06-02T06:03:28.354Z,35.40
2018-06-02T06:05:55.957Z,42.93
2018-06-02T06:08:23.486Z,43.40
2018-06-02T06:10:51.802Z,37.70
2018-06-02T06:13:20.949Z,39.80
2018-06-02T06:15:48.565Z,40.83
2018-06-02T06:18:17.119Z,40.83
2018-06-02T06:20:44.615Z,39.00
2018-06-02T06:23:12.127Z,39.20
2018-06-02T06:25:40.453Z,40.70
2018-06-02T06:28:08.407Z,37.53
2018-06-02T06:30:37.035Z,37.17
2018-06-02T06:33:04.588Z,40.73
2018-06-02T06:35:32.106Z,37.60
2018-06-02T06:37:59.802Z,37.50
2018-06-02T06:40:28.097Z,42.33
2018-06-02T06:42:55.753Z,36.93
2018-06-02T06:45:23.257Z,47.30
2018-06-02T06:47:50.896Z,37.77
2018-06-02T06:50:18.460Z,34.10
2018-06-02T06:52:46.045Z,53.47
2018-06-02T06:55:13.561Z,37.40
2018-06-02T06:57:41.947Z,37.43
2018-06-02T07:00:09.399Z,36.47
2018-06-02T07:02:37.683Z,33.27
2018-06-02T07:05:06.487Z,34.53
2018-06-02T07:07:34.789Z,34.50
2018-06-02T07:10:02.336Z,33.37
2018-06-02T07:12:29.895Z,33.73
2018-06-02T07:14:58.201Z,38.47
2018-06-02T07:17:26.235Z,32.70
2018-06-02T07:19:53.817Z,36.20
2018-06-02T07:22:22.223Z,38.70
2018-06-02T07:24:49.814Z,34.97
2018-06-02T07:27:17.337Z,32.43
2018-06-02T07:29:44.839Z,29.93
2018-06-02T07:32:12.360Z,31.40
2018-06-02T07:34:40.618Z,38.80
2018-06-02T07:37:08.893Z,33.53
2018-06-02T07:39:37.929Z,33.50
2018-06-02T07:42:05.497Z,42.77
2018-06-02T07:44:32.996Z,40.57
2018-06-02T07:47:01.307Z,38.77
2018-06-02T07:49:29.629Z,42.87
2018-06-02T07:51:57.193Z,35.80
2018-06-02T07:54:24.703Z,37.63
2018-06-02T07:56:52.209Z,39.10
2018-06-02T07:59:20.090Z,37.47
2018-06-02T08:01:47.591Z,44.03
2018-06-02T08:04:15.088Z,42.93
2018-06-02T08:06:43.495Z,42.17
2018-06-02T08:09:11.760Z,43.97
2018-06-02T08:11:40.173Z,43.60
2018-06-02T08:14:09.280Z,45.03
2018-06-02T08:16:37.453Z,37.80
2018-06-02T08:19:04.963Z,42.37
2018-06-02T08:21:32.778Z,45.90
2018-06-02T08:24:00.297Z,38.23
2018-06-02T08:26:28.774Z,41.53
2018-06-02T08:28:56.286Z,41.00
2018-06-02T08:31:23.813Z,36.30
2018-06-02T08:33:51.419Z,41.47
2018-06-02T08:36:18.925Z,40.23
2018-06-02T08:38:46.932Z,43.83
2018-06-02T08:41:15.194Z,38.90
2018-06-02T08:43:42.692Z,35.67
2018-06-02T08:46:10.183Z,56.43
2018-06-02T08:48:37.696Z,39.07
2018-06-02T08:51:05.992Z,35.47
2018-06-02T08:53:34.298Z,36.73
2018-06-02T08:56:02.402Z,32.60
2018-06-02T08:58:29.937Z,34.13
2018-06-02T09:00:57.504Z,37.37
2018-06-02T09:03:25.052Z,37.80
2018-06-02T09:05:52.904Z,37.20
2018-06-02T09:08:21.196Z,29.53
2018-06-02T09:10:48.724Z,33.50
2018-06-02T09:13:17.031Z,33.57
2018-06-02T09:15:45.390Z,36.93
2018-06-02T09:18:14.587Z,33.37
2018-06-02T09:20:42.100Z,31.60
2018-06-02T09:23:09.619Z,32.57
2018-06-02T09:25:37.960Z,27.80
2018-06-02T09:28:05.471Z,26.60
2018-06-02T09:30:32.976Z,28.73
2018-06-02T09:33:00.712Z,28.20
2018-06-02T09:35:28.993Z,31.33
2018-06-02T09:37:57.291Z,25.27
2018-06-02T09:40:25.876Z,27.63
2018-06-02T09:42:53.736Z,24.40
2018-06-02T09:45:22.024Z,28.17
2018-06-02T09:47:50.321Z,26.27
2018-06-02T09:50:18.478Z,30.43
2018-06-02T09:52:46.745Z,27.73
2018-06-02T09:55:14.227Z,25.80
2018-06-02T09:57:42.521Z,27.90
2018-06-02T10:00:10.750Z,26.80
2018-06-02T10:02:38.252Z,28.87
2018-06-02T10:05:06.495Z,29.40
2018-06-02T10:07:34.164Z,27.27
2018-06-02T10:10:01.788Z,34.50
2018-06-02T10:12:29.298Z,28.53
2018-06-02T10:14:56.835Z,30.33
2018-06-02T10:17:24.896Z,33.80
2018-06-02T10:19:52.375Z,31.70
2018-06-02T10:22:21.753Z,41.73
2018-06-02T10:24:49.345Z,39.47
2018-06-02T10:27:16.872Z,33.83
2018-06-02T10:29:45.180Z,31.50
2018-06-02T10:32:13.578Z,37.70
2018-06-02T10:34:41.991Z,41.97
2018-06-02T10:37:09.597Z,41.93
2018-06-02T10:39:37.117Z,34.00
2018-06-02T10:42:06.129Z,38.70
2018-06-02T10:44:35.033Z,43.53
2018-06-02T10:47:03.313Z,35.20
2018-06-02T10:49:31.579Z,29.20
2018-06-02T10:51:59.897Z,33.13
2018-06-02T10:54:27.395Z,36.77
2018-06-02T10:56:55.224Z,31.33
2018-06-02T10:59:23.695Z,35.57
2018-06-02T11:01:52.207Z,31.33
2018-06-02T11:04:19.753Z,32.20
2018-06-02T11:06:47.277Z,33.73
2018-06-02T11:09:14.799Z,39.90
2018-06-02T11:11:42.372Z,30.97
2018-06-02T11:14:09.932Z,35.70
2018-06-02T11:16:37.492Z,33.27
2018-06-02T11:19:05.140Z,33.20
2018-06-02T11:21:33.522Z,30.83
2018-06-02T11:24:01.906Z,25.07
2018-06-02T11:26:30.180Z,31.50
2018-06-02T11:28:58.565Z,32.57
2018-06-02T11:31:27.205Z,32.27
2018-06-02T11:33:54.837Z,34.30
2018-06-02T11:36:23.198Z,33.30
2018-06-02T11:38:50.721Z,30.93
2018-06-02T11:41:18.221Z,35.33
2018-06-02T11:43:46.513Z,31.40
2018-06-02T11:46:15.017Z,28.23
2018-06-02T11:48:45.063Z,28.37
2018-06-02T11:51:13.507Z,26.13
2018-06-02T11:53:41.884Z,28.80
2018-06-02T11:56:10.252Z,29.40
2018-06-02T11:58:39.710Z,36.00
2018-06-02T12:01:07.568Z,28.00
2018-06-02T12:03:35.931Z,30.83
2018-06-02T12:06:04.272Z,27.07
2018-06-02T12:08:32.082Z,27.97
2018-06-02T12:11:00.395Z,30.37
2018-06-02T12:13:28.026Z,34.33
2018-06-02T12:15:57.877Z,34.97
2018-06-02T12:18:25.449Z,29.80
2018-06-02T12:20:54.030Z,29.50
2018-06-02T12:23:21.520Z,29.00
2018-06-02T12:25:49.167Z,29.73
2018-06-02T12:28:16.679Z,29.37
2018-06-02T12:30:45.425Z,26.50
2018-06-02T12:33:14.207Z,29.70
2018-06-02T12:35:41.723Z,35.30
2018-06-02T12:38:09.986Z,31.00
2018-06-02T12:40:37.891Z,32.43
2018-06-02T12:43:05.407Z,32.00
2018-06-02T12:45:33.076Z,33.90
2018-06-02T12:48:00.603Z,32.93
2018-06-02T12:50:28.353Z,31.93
2018-06-02T12:52:56.652Z,34.50
2018-06-02T12:55:24.964Z,31.83
2018-06-02T12:57:52.454Z,32.93
2018-06-02T13:00:19.987Z,36.67
2018-06-02T13:02:47.521Z,34.37
2018-06-02T13:05:15.211Z,34.83
2018-06-02T13:07:42.739Z,40.77
2018-06-02T13:10:11.128Z,36.57
2018-06-02T13:12:39.420Z,32.67
2018-06-02T13:15:06.967Z,40.10
2018-06-02T13:17:35.303Z,38.70
2018-06-02T13:20:02.827Z,34.57
2018-06-02T13:22:30.325Z,34.27
2018-06-02T13:24:57.847Z,34.53
2018-06-02T13:27:25.356Z,31.83
2018-06-02T13:29:52.864Z,37.37
2018-06-02T13:32:21.171Z,29.27
2018-06-02T13:34:50.655Z,32.90
2018-06-02T13:37:19.561Z,37.10
2018-06-02T13:39:47.238Z,31.80
2018-06-02T13:42:14.723Z,32.30
2018-06-02T13:44:42.376Z,30.30
2018-06-02T13:47:09.883Z,33.13
2018-06-02T13:49:39.195Z,33.30
2018-06-02T13:52:06.716Z,27.97
2018-06-02T13:54:34.221Z,30.57
2018-06-02T13:57:02.507Z,27.80
2018-06-02T13:59:30.007Z,25.27
2018-06-02T14:01:57.567Z,23.50
2018-06-02T14:04:25.116Z,26.17
2018-06-02T14:06:53.371Z,26.37
2018-06-02T14:09:20.908Z,25.50
2018-06-02T14:11:49.709Z,42.77
2018-06-02T14:14:17.241Z,26.47
2018-06-02T14:16:46.263Z,33.93
2018-06-02T14:19:13.763Z,25.57
2018-06-02T14:21:41.362Z,30.80
2018-06-02T14:24:08.854Z,22.90
2018-06-02T14:26:36.364Z,25.10
2018-06-02T14:29:04.627Z,27.80
2018-06-02T14:31:32.160Z,28.60
2018-06-02T14:34:00.579Z,28.67
2018-06-02T14:36:28.879Z,27.17
2018-06-02T14:38:57.149Z,29.13
2018-06-02T14:41:26.157Z,30.30
2018-06-02T14:43:53.676Z,26.73
2018-06-02T14:46:21.385Z,30.07
2018-06-02T14:48:49.685Z,29.90
2018-06-02T14:51:17.252Z,33.70
2018-06-02T14:53:44.813Z,27.10
2018-06-02T14:56:13.015Z,28.93
2018-06-02T14:58:40.562Z,31.53
2018-06-02T15:01:08.087Z,28.07
2018-06-02T15:03:37.673Z,28.10
2018-06-02T15:06:07.039Z,31.70
2018-06-02T15:08:35.406Z,23.57
2018-06-02T15:11:04.548Z,27.80
2018-06-02T15:13:32.639Z,30.77
2018-06-02T15:16:00.504Z,29.27
2018-06-02T15:18:30.327Z,27.37
2018-06-02T15:20:58.201Z,29.73
2018-06-02T15:23:25.788Z,30.93
2018-06-02T15:25:54.834Z,31.63
2018-06-02T15:28:22.449Z,30.20
2018-06-02T15:30:50.751Z,31.50
2018-06-02T15:33:19.807Z,34.27
2018-06-02T15:35:48.163Z,30.30
2018-06-02T15:38:16.816Z,25.00
2018-06-02T15:40:46.243Z,31.40
2018-06-02T15:43:13.871Z,28.83
2018-06-02T15:45:41.516Z,27.27
2018-06-02T15:48:09.299Z,25.67
2018-06-02T15:50:36.939Z,32.40
2018-06-02T15:53:04.480Z,29.87
2018-06-02T15:55:32.201Z,35.90
2018-06-02T15:58:00.532Z,31.00
2018-06-02T16:00:28.168Z,31.57
2018-06-02T16:02:57.323Z,36.23
2018-06-02T16:05:24.983Z,29.63
2018-06-02T16:07:53.381Z,27.93
2018-06-02T16:10:21.170Z,28.40
2018-06-02T16:12:49.476Z,34.70
2018-06-02T16:15:20.090Z,28.70
2018-06-02T16:17:49.646Z,29.30
2018-06-02T16:20:17.362Z,29.20
2018-06-02T16:22:46.529Z,26.07
2018-06-02T16:25:14.375Z,27.93
2018-06-02T16:27:42.472Z,21.67
2018-06-02T16:30:09.963Z,26.40
2018-06-02T16:32:38.265Z,22.30
2018-06-02T16:35:05.834Z,27.10
2018-06-02T16:37:34.074Z,23.47
2018-06-02T16:40:01.575Z,25.40
2018-06-02T16:42:29.254Z,28.13
2018-06-02T16:44:57.581Z,27.70
2018-06-02T16:47:25.165Z,30.40
2018-06-02T16:49:52.682Z,25.27
2018-06-02T16:52:20.697Z,25.03
2018-06-02T16:54:48.199Z,31.00
2018-06-02T16:57:16.472Z,22.90
2018-06-02T16:59:44.800Z,23.10
2018-06-02T17:02:12.676Z,30.37
2018-06-02T17:04:40.293Z,27.27
2018-06-02T17:07:08.740Z,29.17
2018-06-02T17:09:36.374Z,28.47
2018-06-02T17:12:04.526Z,31.47
2018-06-02T17:14:32.812Z,25.67
2018-06-02T17:17:01.193Z,29.13
2018-06-02T17:19:29.496Z,28.77
2018-06-02T17:21:57.207Z,23.33
2018-06-02T17:24:24.732Z,28.13
2018-06-02T17:26:53.249Z,30.00
2018-06-02T17:29:20.765Z,29.33
2018-06-02T17:31:49.447Z,30.60
2018-06-02T17:34:17.721Z,28.87
2018-06-02T17:36:45.999Z,36.17
2018-06-02T17:39:14.314Z,30.53
2018-06-02T17:41:41.810Z,33.37
2018-06-02T17:44:09.610Z,35.47
2018-06-02T17:46:37.879Z,31.90
2018-06-02T17:49:05.366Z,33.50
2018-06-02T17:51:33.789Z,39.60
2018-06-02T17:54:01.266Z,33.53
2018-06-02T17:56:28.792Z,27.57
2018-06-02T17:58:56.336Z,29.03
2018-06-02T18:01:24.597Z,34.47
2018-06-02T18:03:53.649Z,37.00
2018-06-02T18:06:22.002Z,32.33
2018-06-02T18:08:50.306Z,32.67
2018-06-02T18:11:17.982Z,33.53
2018-06-02T18:13:45.509Z,29.37
2018-06-02T18:16:13.170Z,30.83
2018-06-02T18:18:41.446Z,34.43
2018-06-02T18:21:08.948Z,31.23
2018-06-02T18:23:36.450Z,29.43
2018-06-02T18:26:03.944Z,30.57
2018-06-02T18:28:32.254Z,24.50
2018-06-02T18:31:00.022Z,29.87
2018-06-02T18:33:27.590Z,31.10
2018-06-02T18:35:55.085Z,24.30
2018-06-02T18:38:22.602Z,30.47
2018-06-02T18:40:50.174Z,33.63
2018-06-02T18:43:18.514Z,24.00
2018-06-02T18:45:46.495Z,30.50
2018-06-02T18:48:14.781Z,27.43
2018-06-02T18:50:43.033Z,35.33
2018-06-02T18:53:11.023Z,28.50
2018-06-02T18:55:38.615Z,31.10
2018-06-02T18:58:06.887Z,28.90
2018-06-02T19:00:35.954Z,31.67
2018-06-02T19:03:03.457Z,28.97
2018-06-02T19:05:31.818Z,39.30
2018-06-02T19:07:59.316Z,28.40
2018-06-02T19:10:26.797Z,27.00
2018-06-02T19:12:54.965Z,32.13
2018-06-02T19:15:22.640Z,28.97
2018-06-02T19:17:50.211Z,27.77
2018-06-02T19:20:17.713Z,32.90
2018-06-02T19:22:45.428Z,27.20
2018-06-02T19:25:12.945Z,31.00
2018-06-02T19:27:40.466Z,23.80
2018-06-02T19:30:07.956Z,32.17
2018-06-02T19:32:35.481Z,30.40
2018-06-02T19:35:03.023Z,27.20
2018-06-02T19:37:31.279Z,20.83
2018-06-02T19:39:58.883Z,28.00
2018-06-02T19:42:26.483Z,29.90
2018-06-02T19:44:54.407Z,30.13
2018-06-02T19:47:22.659Z,21.27
2018-06-02T19:49:50.255Z,30.80
2018-06-02T19:52:17.864Z,24.77
2018-06-02T19:54:45.906Z,29.87
2018-06-02T19:57:13.408Z,28.27
2018-06-02T19:59:40.912Z,29.23
2018-06-02T20:02:09.173Z,28.40
2018-06-02T20:04:36.699Z,28.60
2018-06-02T20:07:04.196Z,33.53
2018-06-02T20:09:31.994Z,27.80
2018-06-02T20:12:00.283Z,30.73
2018-06-02T20:14:28.569Z,28.80
2018-06-02T20:16:56.214Z,23.00
2018-06-02T20:19:24.483Z,27.53
2018-06-02T20:21:51.963Z,25.63
2018-06-02T20:24:20.243Z,29.73
2018-06-02T20:26:48.522Z,27.57
2018-06-02T20:29:16.795Z,28.57
2018-06-02T20:31:45.044Z,26.73
2018-06-02T20:34:12.667Z,25.87
2018-06-02T20:36:40.466Z,26.37
2018-06-02T20:39:08.020Z,27.37
2018-06-02T20:41:35.550Z,25.90
2018-06-02T20:44:03.820Z,29.90
2018-06-02T20:46:32.093Z,24.83
2018-06-02T20:48:59.699Z,23.53
2018-06-02T20:51:28.084Z,20.17
2018-06-02T20:53:55.601Z,30.27
2018-06-02T20:56:23.426Z,28.13
2018-06-02T20:58:50.960Z,26.90
2018-06-02T21:01:19.220Z,27.40
2018-06-02T21:03:46.730Z,21.17
2018-06-02T21:06:14.281Z,22.87
2018-06-02T21:08:42.056Z,30.57
2018-06-02T21:11:09.536Z,32.77
2018-06-02T21:13:37.075Z,27.87
2018-06-02T21:16:05.324Z,30.20
2018-06-02T21:18:32.873Z,25.20
2018-06-02T21:21:00.425Z,31.33
2018-06-02T21:23:27.927Z,35.50
2018-06-02T21:25:56.191Z,28.60
2018-06-02T21:28:23.905Z,26.80
2018-06-02T21:30:51.415Z,27.93
2018-06-02T21:33:19.138Z,26.30
2018-06-02T21:35:47.157Z,21.50
2018-06-02T21:38:14.982Z,23.53
2018-06-02T21:40:42.551Z,24.60
2018-06-02T21:43:10.091Z,27.13
2018-06-02T21:45:38.363Z,29.07
2018-06-02T21:48:06.632Z,28.87
2018-06-02T21:50:34.153Z,32.83
2018-06-02T21:53:01.696Z,32.10
2018-06-02T21:55:29.241Z,29.57
2018-06-02T21:57:57.555Z,33.00
2018-06-02T22:00:25.247Z,23.67
2018-06-02T22:02:54.421Z,29.70
2018-06-02T22:05:21.963Z,31.93
2018-06-02T22:07:50.225Z,29.93
2018-06-02T22:10:17.833Z,23.83
2018-06-02T22:12:45.351Z,28.27
2018-06-02T22:15:13.161Z,33.50
2018-06-02T22:17:40.675Z,34.03
2018-06-02T22:20:08.268Z,29.73
2018-06-02T22:22:36.518Z,36.93
2018-06-02T22:25:04.062Z,32.17
2018-06-02T22:27:31.580Z,32.27
2018-06-02T22:29:59.158Z,37.33
2018-06-02T22:32:26.733Z,35.10
2018-06-02T22:34:54.244Z,28.33
2018-06-02T22:37:21.748Z,22.10
2018-06-02T22:39:49.277Z,35.00
2018-06-02T22:42:16.788Z,36.77
2018-06-02T22:44:44.348Z,39.57
2018-06-02T22:47:13.782Z,50.27
2018-06-02T22:49:41.395Z,36.40
2018-06-02T22:52:09.685Z,30.20
2018-06-02T22:54:37.249Z,35.23
2018-06-02T22:57:05.548Z,47.40
2018-06-02T22:59:33.160Z,31.20
2018-06-02T23:02:01.591Z,42.77
2018-06-02T23:04:30.517Z,39.27
2018-06-02T23:06:58.051Z,46.33
2018-06-02T23:09:25.594Z,37.30
2018-06-02T23:11:53.156Z,46.87
2018-06-02T23:14:21.468Z,42.40
2018-06-02T23:16:49.397Z,38.87
2018-06-02T23:19:17.003Z,38.17
2018-06-02T23:21:45.104Z,39.97
2018-06-02T23:24:12.842Z,49.80
2018-06-02T23:26:41.242Z,45.63
2018-06-02T23:29:08.798Z,44.67
2018-06-02T23:31:36.357Z,51.30
2018-06-02T23:34:03.853Z,56.33
2018-06-02T23:36:32.134Z,51.33
2018-06-02T23:39:00.659Z,49.40
2018-06-02T23:41:28.986Z,49.80
2018-06-02T23:43:56.524Z,58.40
2018-06-02T23:46:25.225Z,52.23
2018-06-02T23:48:52.738Z,43.17
2018-06-02T23:51:20.329Z,44.43
2018-06-02T23:53:48.593Z,42.77
2018-06-02T23:56:16.620Z,44.00
2018-06-02T23:58:44.115Z,48.23
